Time;durP1;ratioP1;P1;durP2;ratioP2;P2;SDS_P1;SDS_P2;PMS_P1;PMS_P2;Temp;Humidity;BMP_temperature;BMP_pressure;BME280_temperature;BME280_humidity;BME280_pressure;Samples;Min_cycle;Max_cycle;Signal;HPM_P1;HPM_P2
2022/05/23 08:02:06;;;;;;;8.70;5.23;;;20.70;97.30;;;;;;6142710;23;20983;-87
2022/05/23 08:04:33;;;;;;;5.60;5.00;;;20.70;97.40;;;;;;6167457;23;20766;-87
2022/05/23 08:07:00;;;;;;;5.30;4.90;;;20.80;97.20;;;;;;6168719;23;20741;-87
2022/05/23 08:09:27;;;;;;;5.53;4.87;;;20.80;97.30;;;;;;6169383;23;20413;-87
2022/05/23 08:11:54;;;;;;;6.57;4.67;;;21.10;96.70;;;;;;6171591;23;20925;-85
2022/05/23 08:14:21;;;;;;;6.40;5.80;;;21.60;96.00;;;;;;6177861;23;20403;-86
2022/05/23 08:16:48;;;;;;;8.80;4.60;;;21.60;95.60;;;;;;6169297;23;20733;-86
2022/05/23 08:19:16;;;;;;;5.77;4.50;;;21.80;95.50;;;;;;6163030;23;20915;-86
2022/05/23 08:21:47;;;;;;;6.30;5.00;;;21.90;94.40;;;;;;6162405;23;20490;-86
2022/05/23 08:24:14;;;;;;;8.23;5.30;;;21.90;94.30;;;;;;6162864;23;20831;-86
2022/05/23 08:26:42;;;;;;;8.30;5.40;;;21.70;94.80;;;;;;6164439;23;20411;-86
2022/05/23 08:29:10;;;;;;;6.87;5.60;;;21.70;94.70;;;;;;6165502;23;20393;-86
2022/05/23 08:31:38;;;;;;;6.20;5.60;;;21.80;94.70;;;;;;6172058;23;20420;-86
2022/05/23 08:34:05;;;;;;;8.83;4.53;;;21.70;94.90;;;;;;6181227;23;20404;-86
2022/05/23 08:36:33;;;;;;;6.03;4.20;;;21.40;95.40;;;;;;6166960;23;20410;-86
2022/05/23 08:39:02;;;;;;;6.67;4.93;;;21.30;95.00;;;;;;6166492;23;20448;-86
2022/05/23 08:41:32;;;;;;;4.40;4.00;;;21.20;95.20;;;;;;6166414;23;20462;-86
2022/05/23 08:44:06;;;;;;;8.27;5.50;;;21.30;95.60;;;;;;6175712;23;20379;-86
2022/05/23 08:46:43;;;;;;;4.57;4.17;;;21.40;95.50;;;;;;6182704;23;20462;-87
2022/05/23 08:49:16;;;;;;;5.27;4.77;;;21.40;95.70;;;;;;6181461;23;20450;-87
2022/05/23 08:51:49;;;;;;;7.20;4.73;;;21.40;96.00;;;;;;6178982;23;20415;-86
2022/05/23 08:54:22;;;;;;;7.37;5.10;;;21.30;95.80;;;;;;6166045;23;20394;-85
2022/05/23 08:56:53;;;;;;;4.80;4.23;;;21.20;96.30;;;;;;6162826;23;20399;-86
2022/05/23 08:59:25;;;;;;;6.37;4.80;;;21.30;96.60;;;;;;6163394;23;20430;-85
2022/05/23 09:01:57;;;;;;;7.67;4.43;;;21.40;97.00;;;;;;6163969;23;20467;-86
2022/05/23 09:04:34;;;;;;;8.13;5.87;;;21.40;97.50;;;;;;6167925;23;20391;-85
2022/05/23 09:07:05;;;;;;;11.20;5.30;;;21.40;97.60;;;;;;6144512;23;20866;-86
2022/05/23 09:09:36;;;;;;;6.83;5.27;;;21.20;98.00;;;;;;6167015;23;20724;-86
2022/05/23 09:12:07;;;;;;;9.97;4.93;;;21.40;98.20;;;;;;6164747;23;20426;-86
2022/05/23 09:14:34;;;;;;;6.63;5.93;;;21.50;98.10;;;;;;6165594;23;20405;-85
2022/05/23 09:17:01;;;;;;;16.23;5.80;;;21.60;98.00;;;;;;6165992;23;20407;-85
2022/05/23 09:19:33;;;;;;;6.27;5.77;;;22.20;97.80;;;;;;6165300;23;20446;-86
2022/05/23 09:22:18;;;;;;;8.20;5.27;;;22.60;96.40;;;;;;6171662;23;20432;-85
2022/05/23 09:24:47;;;;;;;13.10;6.20;;;22.30;96.50;;;;;;6178909;23;20392;-86
2022/05/23 09:27:20;;;;;;;8.90;6.17;;;21.90;97.30;;;;;;6174613;23;20399;-85
2022/05/23 09:29:52;;;;;;;6.83;5.60;;;21.80;98.30;;;;;;6173679;23;20450;-85
2022/05/23 09:32:22;;;;;;;6.10;5.50;;;21.80;98.20;;;;;;6171525;23;20438;-86
2022/05/23 09:34:55;;;;;;;6.20;4.97;;;21.80;98.40;;;;;;6167339;23;20395;-86
2022/05/23 09:37:29;;;;;;;6.63;4.90;;;21.70;98.50;;;;;;6166247;23;20462;-86
2022/05/23 09:39:58;;;;;;;7.23;5.53;;;21.70;98.30;;;;;;6169153;23;20415;-86
2022/05/23 09:48:09;;;;;;;8.20;6.60;;;22.10;99.10;;;;;;6166695;23;20809;-87
2022/05/23 09:50:38;;;;;;;7.30;6.13;;;22.30;98.30;;;;;;6164532;23;20954;-86
2022/05/23 09:53:17;;;;;;;5.97;4.97;;;22.30;98.00;;;;;;6165090;23;20408;-86
2022/05/23 09:55:45;;;;;;;6.80;5.27;;;22.60;98.30;;;;;;6164663;23;20399;-86
2022/05/23 09:58:21;;;;;;;5.87;5.23;;;23.00;97.30;;;;;;6164340;23;20449;-86
2022/05/23 10:00:58;;;;;;;5.50;5.00;;;23.30;96.30;;;;;;6163997;23;20433;-86
2022/05/23 10:03:28;;;;;;;5.83;5.27;;;23.40;96.00;;;;;;6164740;23;20706;-86
2022/05/23 10:06:08;;;;;;;5.60;4.93;;;23.80;95.90;;;;;;6165892;23;20440;-86
2022/05/23 10:08:38;;;;;;;5.67;5.07;;;24.80;94.10;;;;;;6167225;23;20387;-86
2022/05/23 10:11:07;;;;;;;7.70;4.90;;;25.50;92.50;;;;;;6168258;23;20429;-87
2022/05/23 10:13:36;;;;;;;6.93;4.47;;;25.90;91.10;;;;;;6166094;23;20497;-86
2022/05/23 10:16:15;;;;;;;5.97;4.87;;;25.70;90.90;;;;;;6166725;23;20438;-87
2022/05/23 10:18:52;;;;;;;6.13;4.50;;;25.80;90.20;;;;;;6168837;23;20442;-87
2022/05/23 10:21:27;;;;;;;5.20;4.50;;;25.60;90.40;;;;;;6165638;23;20770;-87
2022/05/23 10:24:06;;;;;;;6.00;4.93;;;24.60;91.10;;;;;;6169120;23;20401;-87
2022/05/23 10:26:36;;;;;;;5.93;4.53;;;24.30;91.80;;;;;;6176859;23;20386;-86
2022/05/23 10:29:09;;;;;;;6.90;4.50;;;24.00;92.40;;;;;;6180252;23;20415;-86
2022/05/23 10:31:43;;;;;;;13.57;6.27;;;24.20;93.10;;;;;;6177269;23;20429;-86
2022/05/23 10:34:32;;;;;;;6.53;5.70;;;24.00;92.70;;;;;;6167163;23;20399;-86
2022/05/23 10:37:00;;;;;;;6.87;5.07;;;24.00;93.00;;;;;;6165242;23;20449;-86
2022/05/23 10:42:21;;;;;;;5.33;4.80;;;24.00;93.10;;;;;;6163367;23;20797;-86
2022/05/23 10:45:03;;;;;;;6.37;4.80;;;24.20;93.00;;;;;;6163645;23;20397;-86
2022/05/23 10:47:41;;;;;;;6.10;5.17;;;24.20;93.00;;;;;;6162742;23;20390;-86
2022/05/23 10:50:18;;;;;;;6.00;4.90;;;24.10;93.00;;;;;;6163000;23;20413;-86
2022/05/23 10:52:54;;;;;;;5.40;4.70;;;24.30;92.90;;;;;;6170077;23;20395;-85
2022/05/23 10:55:29;;;;;;;7.47;5.50;;;24.40;92.70;;;;;;6167923;23;20426;-86
2022/05/23 10:58:05;;;;;;;6.03;5.00;;;24.40;93.10;;;;;;6163804;23;20402;-86
2022/05/23 11:00:41;;;;;;;5.57;4.80;;;24.10;93.00;;;;;;6162629;23;20809;-86
2022/05/23 11:03:18;;;;;;;5.50;4.80;;;23.80;93.50;;;;;;6163331;23;20725;-86
2022/05/23 11:05:51;;;;;;;7.13;4.70;;;23.70;94.20;;;;;;6163089;23;20394;-86
2022/05/23 11:08:36;;;;;;;7.47;5.13;;;23.50;94.60;;;;;;6162878;23;20418;-85
2022/05/23 11:11:11;;;;;;;7.10;4.50;;;23.40;95.10;;;;;;6162834;23;20434;-86
2022/05/23 11:13:52;;;;;;;6.67;4.80;;;23.30;96.40;;;;;;6160876;23;20398;-87
2022/05/23 11:16:28;;;;;;;15.17;6.57;;;22.90;97.40;;;;;;6159970;23;20445;-86
2022/05/23 11:19:17;;;;;;;12.27;7.10;;;22.30;99.90;;;;;;6162194;23;20525;-86
2022/05/23 11:21:49;;;;;;;13.30;8.80;;;21.60;99.90;;;;;;6161423;23;20432;-86
2022/05/23 11:24:21;;;;;;;18.67;10.10;;;21.00;99.90;;;;;;6162360;23;20454;-85
2022/05/23 11:26:53;;;;;;;8.57;7.73;;;20.80;99.90;;;;;;6162105;23;20793;-85
2022/05/23 11:35:10;;;;;;;7.70;6.40;;;19.90;99.90;;;;;;6043540;23;20397;-86
2022/05/23 11:37:48;;;;;;;7.60;6.90;;;19.70;99.90;;;;;;6142554;23;20406;-85
2022/05/23 11:40:50;;;;;;;7.37;6.67;;;19.60;99.90;;;;;;6172560;23;20420;-85
2022/05/23 11:43:21;;;;;;;9.23;7.87;;;19.60;99.90;;;;;;6174301;23;20428;-85
2022/05/23 11:45:59;;;;;;;9.07;6.63;;;19.40;99.90;;;;;;6167115;23;20448;-85
2022/05/23 11:48:36;;;;;;;10.87;8.33;;;19.40;99.90;;;;;;6162149;23;20539;-85
2022/05/23 11:51:14;;;;;;;12.13;7.47;;;19.30;99.90;;;;;;6165032;23;20425;-85
2022/05/23 11:53:44;;;;;;;8.93;6.13;;;19.30;99.90;;;;;;6165331;23;20407;-87
2022/05/23 11:56:32;;;;;;;7.90;5.90;;;19.20;99.90;;;;;;6161999;23;20384;-85
2022/05/23 11:59:01;;;;;;;6.80;4.30;;;19.10;99.90;;;;;;6162143;23;20384;-86
2022/05/23 12:01:30;;;;;;;8.70;4.63;;;18.90;99.90;;;;;;6162051;23;20435;-86
2022/05/23 12:04:16;;;;;;;7.20;4.70;;;18.80;99.90;;;;;;6163389;23;20407;-85
2022/05/23 12:06:42;;;;;;;5.00;3.80;;;18.70;99.90;;;;;;6161720;23;20756;-86
2022/05/23 12:09:38;;;;;;;6.47;3.77;;;18.50;99.90;;;;;;6161639;23;20470;-86
2022/05/23 12:12:47;;;;;;;6.47;3.67;;;18.50;99.90;;;;;;6162754;23;20441;-85
2022/05/23 12:15:48;;;;;;;5.10;3.80;;;18.40;99.90;;;;;;6073857;23;20410;-87
2022/05/23 12:18:38;;;;;;;6.33;3.90;;;18.20;99.90;;;;;;6071025;23;20427;-87
2022/05/23 12:21:08;;;;;;;8.03;5.73;;;18.30;99.90;;;;;;6151986;23;20487;-86
2022/05/23 12:23:41;;;;;;;7.03;5.13;;;18.20;99.90;;;;;;6171910;23;20442;-87
2022/05/23 12:26:24;;;;;;;12.00;4.03;;;18.20;99.90;;;;;;6180580;23;20425;-85
2022/05/23 12:28:53;;;;;;;6.40;3.57;;;18.20;99.90;;;;;;6166673;23;20438;-85
2022/05/23 12:31:23;;;;;;;5.37;3.70;;;18.20;99.90;;;;;;6162251;23;20433;-87
2022/05/23 12:33:53;;;;;;;6.37;3.80;;;18.20;99.90;;;;;;6161655;23;20898;-85
2022/05/23 12:36:24;;;;;;;8.87;3.93;;;18.10;99.90;;;;;;6161455;23;20408;-85
2022/05/23 12:39:16;;;;;;;6.87;3.90;;;18.10;99.90;;;;;;6178962;23;20466;-84
2022/05/23 12:42:01;;;;;;;5.23;4.20;;;18.20;99.90;;;;;;6170332;23;20750;-85
2022/05/23 12:44:59;;;;;;;6.33;4.50;;;18.10;99.90;;;;;;6165267;23;20399;-85
2022/05/23 12:47:47;;;;;;;6.90;3.83;;;18.20;99.90;;;;;;6163843;23;20463;-84
2022/05/23 12:50:23;;;;;;;5.57;3.80;;;18.30;99.90;;;;;;6162988;23;20477;-85
2022/05/23 12:53:15;;;;;;;8.20;4.20;;;18.50;99.90;;;;;;6160850;23;20404;-86
2022/05/23 12:55:54;;;;;;;7.43;3.97;;;18.80;99.90;;;;;;6160344;23;20455;-86
2022/05/23 12:58:37;;;;;;;8.03;4.00;;;18.90;99.90;;;;;;6159552;23;20407;-86
2022/05/23 13:01:07;;;;;;;7.33;4.10;;;19.20;99.90;;;;;;6159403;23;20448;-86
2022/05/23 13:03:47;;;;;;;6.03;3.93;;;19.40;99.90;;;;;;6160150;23;20390;-85
2022/05/23 13:06:19;;;;;;;10.57;4.30;;;19.70;99.90;;;;;;6160118;23;20392;-86
2022/05/23 13:08:50;;;;;;;8.83;4.67;;;20.00;99.90;;;;;;6159881;23;20431;-86
2022/05/23 13:11:23;;;;;;;8.77;5.07;;;20.40;99.90;;;;;;6160488;23;20429;-87
2022/05/23 13:13:51;;;;;;;7.23;4.27;;;20.70;99.90;;;;;;6160564;23;20405;-87
2022/05/23 13:16:22;;;;;;;7.50;3.80;;;20.90;99.90;;;;;;6160052;23;20466;-87
2022/05/23 13:27:08;;;;;;;6.90;3.40;;;22.10;99.90;;;;;;6160331;23;20376;-85
2022/05/23 13:29:35;;;;;;;10.40;3.80;;;22.70;99.90;;;;;;6166514;23;20448;-84
2022/05/23 13:32:07;;;;;;;5.33;2.70;;;23.40;99.90;;;;;;6172622;23;20492;-87
2022/05/23 13:34:37;;;;;;;6.27;3.37;;;24.50;99.90;;;;;;6170082;23;20394;-86
2022/05/23 13:37:06;;;;;;;5.73;3.17;;;25.80;99.90;;;;;;6180634;23;20407;-86
2022/05/23 13:39:33;;;;;;;4.70;2.97;;;25.60;96.50;;;;;;6181154;23;20485;-85
2022/05/23 13:42:04;;;;;;;4.60;2.80;;;24.60;97.30;;;;;;6180135;23;20482;-86
2022/05/23 13:44:32;;;;;;;6.80;3.60;;;24.80;98.90;;;;;;6177529;23;20397;-86
2022/05/23 13:47:04;;;;;;;5.43;3.53;;;25.60;97.80;;;;;;6175310;23;20411;-87
2022/05/23 13:49:37;;;;;;;2.90;2.00;;;26.10;95.70;;;;;;6171150;23;20423;-86
2022/05/23 13:52:09;;;;;;;6.23;2.97;;;25.60;95.50;;;;;;6170324;23;20437;-87
2022/05/23 13:54:40;;;;;;;10.40;4.33;;;26.30;95.70;;;;;;6171226;23;20466;-86
2022/05/23 13:57:11;;;;;;;7.40;3.10;;;26.70;94.50;;;;;;6174905;23;20679;-87
2022/05/23 13:59:41;;;;;;;6.30;3.07;;;27.10;93.30;;;;;;6175937;23;20383;-86
2022/05/23 14:02:13;;;;;;;5.10;2.83;;;27.80;91.10;;;;;;6171620;23;20445;-86
2022/05/23 14:07:22;;;;;;;6.73;3.53;;;27.20;92.20;;;;;;6162393;23;20460;-82
2022/05/23 14:09:52;;;;;;;5.43;2.93;;;27.20;91.50;;;;;;6163375;23;20490;-81
2022/05/23 14:12:23;;;;;;;4.97;3.00;;;27.80;90.40;;;;;;6164789;23;20401;-81
2022/05/23 14:14:54;;;;;;;6.67;2.80;;;27.40;91.10;;;;;;6164258;23;20406;-81
2022/05/23 14:17:29;;;;;;;5.10;2.40;;;27.10;90.10;;;;;;6165217;23;20410;-81
2022/05/23 14:20:10;;;;;;;5.70;3.10;;;26.70;90.10;;;;;;6166262;23;20391;-80
2022/05/23 14:22:38;;;;;;;4.53;2.70;;;25.80;91.00;;;;;;6176471;23;20391;-81
2022/05/23 14:25:17;;;;;;;6.87;2.83;;;26.10;91.50;;;;;;6178313;23;20433;-80
2022/05/23 14:27:50;;;;;;;6.30;3.37;;;26.10;91.90;;;;;;6170514;23;20409;-81
2022/05/23 14:30:30;;;;;;;6.10;3.40;;;26.10;91.70;;;;;;6169444;23;20461;-82
2022/05/23 14:33:00;;;;;;;5.97;3.33;;;25.90;91.20;;;;;;6171924;23;20449;-81
2022/05/23 14:35:38;;;;;;;6.87;2.70;;;26.20;93.40;;;;;;6165697;23;20434;-81
2022/05/23 14:38:22;;;;;;;8.97;3.60;;;25.80;93.50;;;;;;6162813;23;20391;-81
2022/05/23 14:40:48;;;;;;;8.07;2.87;;;25.70;93.20;;;;;;6164185;23;20422;-80
2022/05/23 14:43:29;;;;;;;5.50;2.87;;;25.10;94.00;;;;;;6164917;23;20407;-81
2022/05/23 14:45:59;;;;;;;8.40;3.67;;;25.00;94.40;;;;;;6163897;23;20453;-80
2022/05/23 14:48:30;;;;;;;4.97;3.20;;;24.80;94.60;;;;;;6167296;23;20403;-82
2022/05/23 14:51:11;;;;;;;8.70;3.57;;;24.80;93.40;;;;;;6170948;23;20522;-81
2022/05/23 14:56:35;;;;;;;4.53;2.70;;;24.50;94.90;;;;;;6182898;23;20405;-81
2022/05/23 15:01:47;;;;;;;9.50;2.80;;;24.40;95.90;;;;;;6182571;23;20437;-80
2022/05/23 15:04:25;;;;;;;5.80;3.43;;;24.60;95.20;;;;;;6171717;23;20897;-82
2022/05/23 15:06:53;;;;;;;5.87;4.03;;;24.70;94.10;;;;;;6170596;23;20439;-81
2022/05/23 15:09:21;;;;;;;7.30;3.60;;;24.60;95.20;;;;;;6174423;23;20446;-81
2022/05/23 15:11:48;;;;;;;9.20;3.63;;;24.50;94.90;;;;;;6183109;23;20383;-82
2022/05/23 15:14:17;;;;;;;5.40;3.13;;;24.50;94.40;;;;;;6184251;23;20418;-81
2022/05/23 15:16:44;;;;;;;5.73;3.20;;;24.60;94.90;;;;;;6183412;23;20490;-81
2022/05/23 15:19:14;;;;;;;6.73;3.03;;;24.70;95.20;;;;;;6179663;23;20410;-82
2022/05/23 15:21:41;;;;;;;7.43;3.27;;;24.80;94.70;;;;;;6173872;23;20422;-82
2022/05/23 15:24:10;;;;;;;7.90;4.53;;;24.60;94.90;;;;;;6172863;23;20387;-81
2022/05/23 15:26:40;;;;;;;6.17;2.90;;;24.50;95.40;;;;;;6171257;23;20435;-82
2022/05/23 15:29:08;;;;;;;6.23;3.97;;;24.40;95.80;;;;;;6167895;23;20415;-83
2022/05/23 15:31:41;;;;;;;4.73;3.50;;;24.20;94.60;;;;;;6168806;23;20410;-81
2022/05/23 15:34:08;;;;;;;6.57;3.33;;;24.10;95.20;;;;;;6174188;23;20390;-82
2022/05/23 15:36:36;;;;;;;6.40;3.83;;;24.00;95.20;;;;;;6170840;23;20442;-82
2022/05/23 15:39:03;;;;;;;7.13;5.17;;;24.00;95.30;;;;;;6167402;23;20403;-82
2022/05/23 15:41:31;;;;;;;20.20;4.50;;;23.90;95.60;;;;;;6166161;23;20435;-82
2022/05/23 15:43:59;;;;;;;4.13;2.90;;;23.90;95.40;;;;;;6166941;23;20453;-82
2022/05/23 15:46:27;;;;;;;5.13;3.90;;;23.90;96.00;;;;;;6166412;23;21107;-82
2022/05/23 15:48:54;;;;;;;5.20;2.73;;;23.90;96.30;;;;;;6166036;23;20414;-83
2022/05/23 15:51:20;;;;;;;6.47;3.63;;;23.90;96.20;;;;;;6173550;23;20450;-82
2022/05/23 15:53:47;;;;;;;6.43;3.27;;;24.00;96.60;;;;;;6171373;23;20920;-81
2022/05/23 15:56:14;;;;;;;5.13;3.50;;;23.90;96.40;;;;;;6173717;23;20434;-81
2022/05/23 15:58:42;;;;;;;7.47;3.90;;;23.80;96.70;;;;;;6170595;23;20489;-82
2022/05/23 16:01:13;;;;;;;7.43;3.67;;;23.70;96.90;;;;;;6167148;23;20407;-82
2022/05/23 16:03:40;;;;;;;5.27;3.30;;;23.60;97.20;;;;;;6165352;23;20398;-83
2022/05/23 16:06:07;;;;;;;5.33;3.57;;;23.50;97.00;;;;;;6163510;23;20450;-81
2022/05/23 16:08:34;;;;;;;6.30;3.63;;;23.50;97.60;;;;;;6162779;23;20414;-81
2022/05/23 16:11:04;;;;;;;5.50;3.00;;;23.40;97.90;;;;;;6162584;23;20754;-82
2022/05/23 16:13:32;;;;;;;5.63;3.50;;;23.40;97.70;;;;;;6163078;23;20391;-82
2022/05/23 16:16:01;;;;;;;11.40;4.80;;;23.40;97.90;;;;;;6162145;23;20449;-82
2022/05/23 16:18:30;;;;;;;6.00;4.27;;;23.30;97.40;;;;;;6160888;23;20415;-83
2022/05/23 16:20:58;;;;;;;8.03;3.20;;;23.30;97.60;;;;;;6162072;23;20824;-82
2022/05/23 16:23:25;;;;;;;4.43;3.50;;;23.20;97.40;;;;;;6160995;23;20414;-82
2022/05/23 16:25:52;;;;;;;6.13;4.00;;;23.10;98.20;;;;;;6162015;23;20430;-82
2022/05/23 16:28:18;;;;;;;8.83;5.27;;;22.90;98.90;;;;;;6161139;23;20750;-82
2022/05/23 16:30:46;;;;;;;8.30;3.60;;;22.80;99.60;;;;;;6160636;23;20449;-83
2022/05/23 16:38:49;;;;;;;7.20;3.20;;;22.50;99.90;;;;;;6155397;23;20433;-88
2022/05/23 16:41:16;;;;;;;8.27;4.07;;;22.40;99.90;;;;;;6157469;23;20417;-89
2022/05/23 16:43:43;;;;;;;5.50;4.40;;;22.30;99.90;;;;;;6160568;23;20402;-89
2022/05/23 16:46:10;;;;;;;6.43;4.40;;;22.10;99.90;;;;;;6159263;23;20760;-89
2022/05/23 16:48:37;;;;;;;8.87;4.60;;;22.00;99.90;;;;;;6161394;23;20410;-89
2022/05/23 16:51:07;;;;;;;7.47;4.40;;;21.90;99.90;;;;;;6160875;23;20958;-89
2022/05/23 16:53:34;;;;;;;11.30;3.77;;;21.80;99.90;;;;;;6170489;23;20401;-88
2022/05/23 16:56:00;;;;;;;9.07;4.40;;;21.80;99.90;;;;;;6181861;23;20499;-88
2022/05/23 16:58:28;;;;;;;13.47;5.17;;;21.70;99.90;;;;;;6176070;23;20464;-89
2022/05/23 17:00:54;;;;;;;7.70;4.10;;;21.60;99.90;;;;;;6165398;23;20443;-87
2022/05/23 17:03:21;;;;;;;5.27;4.23;;;21.50;99.90;;;;;;6166227;23;20419;-88
2022/05/23 17:05:48;;;;;;;8.50;4.57;;;21.40;99.90;;;;;;6166296;23;20777;-89
2022/05/23 17:08:16;;;;;;;6.33;3.80;;;21.40;99.90;;;;;;6165992;23;20412;-89
2022/05/23 17:10:44;;;;;;;6.47;3.67;;;21.30;99.90;;;;;;6171953;23;20494;-88
2022/05/23 17:13:11;;;;;;;6.40;3.90;;;21.20;99.90;;;;;;6172066;23;20435;-89
2022/05/23 17:15:39;;;;;;;8.03;4.10;;;21.20;99.90;;;;;;6164903;23;20510;-90
2022/05/23 17:18:06;;;;;;;5.57;3.73;;;21.10;99.90;;;;;;6165334;23;20877;-89
2022/05/23 17:20:35;;;;;;;8.83;3.43;;;21.00;99.90;;;;;;6163173;23;20405;-88
2022/05/23 17:23:01;;;;;;;9.30;3.73;;;20.90;99.90;;;;;;6177541;23;20407;-89
2022/05/23 17:25:30;;;;;;;7.57;4.60;;;20.90;99.90;;;;;;6176599;23;20419;-87
2022/05/23 17:27:57;;;;;;;8.93;3.70;;;20.90;99.90;;;;;;6170890;23;20928;-89
2022/05/23 17:30:26;;;;;;;6.80;3.20;;;20.80;99.90;;;;;;6164147;23;20444;-90
2022/05/23 17:32:53;;;;;;;8.07;3.80;;;20.80;99.90;;;;;;6170838;23;20405;-89
2022/05/23 17:35:20;;;;;;;9.50;5.23;;;20.80;99.90;;;;;;6168429;23;20514;-90
2022/05/23 17:37:47;;;;;;;6.80;4.10;;;20.80;99.90;;;;;;6169055;23;20407;-87
2022/05/23 17:40:15;;;;;;;9.20;5.17;;;20.80;99.90;;;;;;6171947;23;20407;-90
2022/05/23 17:42:44;;;;;;;10.90;4.70;;;20.90;99.90;;;;;;6179196;23;20387;-89
2022/05/23 17:45:13;;;;;;;8.57;5.07;;;20.90;99.90;;;;;;6180817;23;20432;-87
2022/05/23 17:47:40;;;;;;;5.90;4.80;;;20.80;99.90;;;;;;6181850;23;20461;-87
2022/05/23 17:50:07;;;;;;;8.30;4.43;;;20.80;99.90;;;;;;6180154;23;20443;-87
2022/05/23 17:52:37;;;;;;;7.10;3.87;;;20.80;99.90;;;;;;6173509;23;20467;-89
2022/05/23 17:55:05;;;;;;;10.63;4.43;;;20.90;99.90;;;;;;6173047;23;20464;-90
2022/05/23 17:57:33;;;;;;;8.27;4.37;;;20.90;99.90;;;;;;6170844;23;20417;-88
2022/05/23 18:00:02;;;;;;;9.27;4.43;;;20.90;99.90;;;;;;6169419;23;20406;-90
2022/05/23 18:02:28;;;;;;;7.40;3.70;;;20.90;99.90;;;;;;6168833;23;20406;-89
2022/05/23 18:04:55;;;;;;;5.87;4.43;;;20.70;99.90;;;;;;6167409;23;20785;-90
2022/05/23 18:07:22;;;;;;;11.37;4.23;;;20.50;99.90;;;;;;6165432;23;20434;-89
2022/05/23 18:09:49;;;;;;;9.60;5.20;;;20.40;99.90;;;;;;6164440;23;20391;-88
2022/05/23 18:12:16;;;;;;;6.50;3.83;;;20.40;99.90;;;;;;6165599;23;20814;-88
2022/05/23 18:20:28;;;;;;;4.03;3.00;;;20.50;99.90;;;;;;6076196;23;20520;-88
2022/05/23 18:22:55;;;;;;;6.10;3.23;;;20.50;99.90;;;;;;6076427;23;20419;-83
2022/05/23 18:25:23;;;;;;;5.03;3.30;;;20.50;99.90;;;;;;6114989;23;20428;-82
2022/05/23 18:27:50;;;;;;;7.33;4.17;;;20.50;99.90;;;;;;6176065;23;20415;-81
2022/05/23 18:30:17;;;;;;;8.50;4.70;;;20.50;99.90;;;;;;6174958;23;20438;-82
2022/05/23 18:32:45;;;;;;;5.00;3.27;;;20.40;99.90;;;;;;6170983;23;20404;-83
2022/05/23 18:35:12;;;;;;;14.50;4.50;;;20.40;99.90;;;;;;6174957;23;20445;-83
2022/05/23 18:37:41;;;;;;;12.97;4.90;;;20.30;99.90;;;;;;6168350;23;20938;-83
2022/05/23 18:40:09;;;;;;;5.33;3.40;;;20.30;99.90;;;;;;6167641;23;20407;-82
2022/05/23 18:42:36;;;;;;;5.67;3.23;;;20.20;99.90;;;;;;6166047;23;20414;-82
2022/05/23 18:45:04;;;;;;;13.37;4.43;;;20.20;99.90;;;;;;6165996;23;20441;-83
2022/05/23 18:47:31;;;;;;;6.97;3.70;;;20.30;99.90;;;;;;6166823;23;20465;-83
2022/05/23 18:49:59;;;;;;;5.90;3.33;;;20.30;99.90;;;;;;6165046;23;20437;-83
2022/05/23 18:52:27;;;;;;;6.83;4.27;;;20.40;99.90;;;;;;6164621;23;20402;-83
2022/05/23 18:54:54;;;;;;;5.83;3.77;;;20.70;99.90;;;;;;6164759;23;20429;-83
2022/05/23 18:57:22;;;;;;;6.83;3.60;;;20.80;99.90;;;;;;6165520;23;20410;-82
2022/05/23 18:59:51;;;;;;;8.50;3.57;;;20.90;99.40;;;;;;6165842;23;20411;-83
2022/05/23 19:02:19;;;;;;;6.23;2.40;;;21.00;98.30;;;;;;6177562;23;20417;-83
2022/05/23 19:04:46;;;;;;;4.93;2.77;;;21.10;97.60;;;;;;6174569;23;20406;-82
2022/05/23 19:07:16;;;;;;;3.00;2.40;;;21.20;96.40;;;;;;6166309;23;20425;-83
2022/05/23 19:09:44;;;;;;;10.43;2.80;;;21.20;95.60;;;;;;6165212;23;20435;-81
2022/05/23 19:12:12;;;;;;;6.00;2.23;;;21.30;95.10;;;;;;6164595;23;20564;-82
2022/05/23 19:14:39;;;;;;;5.90;3.40;;;21.30;95.10;;;;;;6165576;23;20407;-82
2022/05/23 19:17:07;;;;;;;3.77;2.70;;;21.30;94.60;;;;;;6168643;23;20407;-81
2022/05/23 19:19:35;;;;;;;6.83;2.60;;;21.20;94.60;;;;;;6168464;23;20413;-82
2022/05/23 19:22:02;;;;;;;2.50;2.07;;;21.20;94.60;;;;;;6171496;23;20403;-81
2022/05/23 19:24:33;;;;;;;4.07;2.40;;;21.20;94.70;;;;;;6165797;23;20434;-83
2022/05/23 19:27:00;;;;;;;3.53;2.17;;;21.20;94.30;;;;;;6163456;23;20882;-82
2022/05/23 19:29:27;;;;;;;5.20;3.00;;;21.10;94.50;;;;;;6162931;23;20926;-83
2022/05/23 19:31:54;;;;;;;3.30;2.40;;;21.10;94.30;;;;;;6162721;23;20443;-83
2022/05/23 19:34:22;;;;;;;7.30;3.53;;;21.10;94.50;;;;;;6162715;23;20426;-82
2022/05/23 19:36:49;;;;;;;4.60;2.47;;;21.10;94.40;;;;;;6159305;23;20441;-82
2022/05/23 19:39:16;;;;;;;3.67;2.70;;;21.10;94.30;;;;;;6159220;23;20414;-82
2022/05/23 19:41:47;;;;;;;3.77;3.00;;;21.00;94.60;;;;;;6160774;23;20714;-82
2022/05/23 19:44:14;;;;;;;3.07;2.20;;;21.00;94.50;;;;;;6163476;23;20422;-88
2022/05/23 19:49:40;;;;;;;4.43;2.20;;;20.90;94.90;;;;;;6165895;23;20455;-93
2022/05/23 19:54:59;;;;;;;5.53;3.70;;;20.90;95.10;;;;;;6182479;23;20413;-91
2022/05/23 19:57:40;;;;;;;3.63;2.60;;;20.90;95.20;;;;;;6181871;23;20427;-91
2022/05/23 20:00:13;;;;;;;4.63;2.77;;;20.90;95.40;;;;;;6178913;23;20411;-93
2022/05/23 20:19:47;;;;;;;4.43;2.43;;;20.90;95.90;;;;;;6203743;22;20433;-92
2022/05/23 20:22:14;;;;;;;5.57;3.70;;;20.80;96.20;;;;;;6198105;23;20408;-93
2022/05/23 20:25:05;;;;;;;9.13;2.83;;;20.70;96.50;;;;;;6196318;23;20961;-92
2022/05/23 20:27:35;;;;;;;5.80;2.77;;;20.70;96.60;;;;;;6193741;23;20410;-93
2022/05/23 20:30:37;;;;;;;3.93;2.93;;;20.70;96.80;;;;;;6197551;23;20412;-93
2022/05/23 20:36:17;;;;;;;5.07;2.63;;;20.70;96.80;;;;;;6164776;23;20434;-92
2022/05/23 20:39:11;;;;;;;5.70;3.20;;;20.70;97.00;;;;;;6186727;23;20417;-92
2022/05/23 20:41:42;;;;;;;3.57;3.23;;;20.70;97.20;;;;;;6199086;23;20396;-94
2022/05/23 20:44:14;;;;;;;3.57;3.27;;;20.70;97.10;;;;;;6199654;23;20414;-93
2022/05/23 20:49:40;;;;;;;6.03;2.77;;;20.70;97.40;;;;;;6198069;23;20413;-94
2022/05/23 20:52:20;;;;;;;4.13;2.70;;;20.70;97.70;;;;;;6203841;23;20954;-93
2022/05/23 21:00:16;;;;;;;3.30;2.93;;;20.60;98.00;;;;;;6180202;23;20439;-92
2022/05/23 21:02:43;;;;;;;5.83;2.87;;;20.60;97.80;;;;;;6180544;23;20462;-94
2022/05/23 21:05:19;;;;;;;3.03;2.73;;;20.50;97.90;;;;;;6169741;23;20431;-93
2022/05/23 21:07:48;;;;;;;6.47;2.93;;;20.50;98.20;;;;;;6172223;23;20392;-91
2022/05/23 21:10:15;;;;;;;4.23;2.53;;;20.40;98.40;;;;;;6167527;23;20462;-92
2022/05/23 21:12:51;;;;;;;5.87;2.70;;;20.30;98.60;;;;;;6178062;23;20453;-93
2022/05/23 21:15:29;;;;;;;3.47;2.77;;;20.30;98.80;;;;;;6181156;23;20418;-92
2022/05/23 21:18:00;;;;;;;4.97;2.73;;;20.20;98.90;;;;;;6179981;23;20411;-91
2022/05/23 21:20:33;;;;;;;3.30;2.67;;;20.20;99.00;;;;;;6178709;23;20409;-92
2022/05/23 21:23:13;;;;;;;4.53;3.03;;;20.20;99.40;;;;;;6167551;23;20731;-92
2022/05/23 21:25:49;;;;;;;3.87;2.70;;;20.20;99.60;;;;;;6165112;23;20526;-92
2022/05/23 21:34:15;;;;;;;5.63;2.90;;;20.10;99.70;;;;;;6173354;23;20412;-92
2022/05/23 21:37:03;;;;;;;6.70;3.00;;;20.20;99.90;;;;;;6165730;23;20469;-92
2022/05/23 21:50:54;;;;;;;2.93;2.60;;;20.10;99.90;;;;;;6155985;23;20480;-93
2022/05/23 21:53:32;;;;;;;3.47;2.30;;;20.10;99.90;;;;;;6167250;23;20474;-92
2022/05/23 21:56:08;;;;;;;4.33;2.20;;;20.10;99.90;;;;;;6185209;23;20507;-92
2022/05/23 21:58:40;;;;;;;2.73;2.50;;;20.10;99.90;;;;;;6185298;23;20405;-90
2022/05/23 22:04:02;;;;;;;2.97;2.37;;;20.10;99.90;;;;;;6185215;23;20369;-93
2022/05/23 22:06:33;;;;;;;6.27;2.20;;;20.10;99.90;;;;;;6184216;23;20465;-93
2022/05/23 22:09:11;;;;;;;4.50;2.87;;;20.10;99.90;;;;;;6174020;23;20407;-93
2022/05/23 22:11:46;;;;;;;6.63;2.90;;;20.00;99.90;;;;;;6173936;23;20494;-93
2022/05/23 22:14:21;;;;;;;4.03;2.30;;;20.00;99.90;;;;;;6185187;23;20401;-93
2022/05/23 22:17:20;;;;;;;3.37;2.20;;;19.90;99.90;;;;;;6184403;23;20432;-93
2022/05/23 22:19:58;;;;;;;3.67;2.40;;;20.00;99.90;;;;;;6183704;23;20406;-94
2022/05/23 22:22:34;;;;;;;6.30;3.53;;;20.00;99.90;;;;;;6170279;23;20409;-91
2022/05/23 22:25:09;;;;;;;3.63;2.43;;;19.80;99.90;;;;;;6183873;23;20423;-94
2022/05/23 22:27:38;;;;;;;5.53;3.00;;;19.90;99.90;;;;;;6165612;23;20417;-93
2022/05/23 22:30:09;;;;;;;5.00;2.30;;;19.80;99.90;;;;;;6163931;23;20414;-93
2022/05/23 22:32:50;;;;;;;4.77;2.50;;;19.80;99.90;;;;;;6164394;23;20444;-94
2022/05/23 22:35:25;;;;;;;2.70;2.23;;;19.70;99.90;;;;;;6161603;23;20983;-93
2022/05/23 22:38:02;;;;;;;5.30;2.30;;;19.70;99.90;;;;;;6177737;23;20393;-93
2022/05/23 22:40:38;;;;;;;3.13;2.33;;;19.70;99.90;;;;;;6180969;23;20428;-93
2022/05/23 22:43:12;;;;;;;4.63;2.50;;;19.70;99.90;;;;;;6174493;23;20408;-94
2022/05/23 22:45:46;;;;;;;3.10;1.90;;;19.70;99.90;;;;;;6171134;23;20508;-93
2022/05/23 22:48:19;;;;;;;3.00;2.33;;;19.70;99.90;;;;;;6168306;23;20409;-93